sensor_id;sensor_type;location;lat;lon;timestamp;P1;durP1;ratioP1;P2;durP2;ratioP2
76900;SDS011;65859;43.020;25.096;2023-05-29T00:01:57;12.30;;;9.45;;
76900;SDS011;65859;43.020;25.096;2023-05-29T00:04:24;13.52;;;10.15;;
76900;SDS011;65859;43.020;25.096;2023-05-29T00:06:50;14.38;;;9.98;;
76900;SDS011;65859;43.020;25.096;2023-05-29T00:09:17;15.80;;;10.30;;
76900;SDS011;65859;43.020;25.096;2023-05-29T00:11:43;17.90;;;10.75;;
76900;SDS011;65859;43.020;25.096;2023-05-29T00:14:15;15.25;;;11.20;;
76900;SDS011;65859;43.020;25.096;2023-05-29T00:16:45;12.38;;;9.75;;
76900;SDS011;65859;43.020;25.096;2023-05-29T00:19:12;14.68;;;10.65;;
76900;SDS011;65859;43.020;25.096;2023-05-29T00:21:39;12.38;;;9.25;;
76900;SDS011;65859;43.020;25.096;2023-05-29T00:24:06;11.98;;;9.52;;
76900;SDS011;65859;43.020;25.096;2023-05-29T00:26:32;16.02;;;10.18;;
76900;SDS011;65859;43.020;25.096;2023-05-29T00:28:58;15.20;;;11.05;;
76900;SDS011;65859;43.020;25.096;2023-05-29T00:31:24;14.27;;;10.90;;
76900;SDS011;65859;43.020;25.096;2023-05-29T00:33:51;13.82;;;10.65;;
76900;SDS011;65859;43.020;25.096;2023-05-29T00:36:17;14.10;;;10.38;;
76900;SDS011;65859;43.020;25.096;2023-05-29T00:38:44;12.95;;;10.68;;
76900;SDS011;65859;43.020;25.096;2023-05-29T00:41:16;15.98;;;11.45;;
76900;SDS011;65859;43.020;25.096;2023-05-29T00:43:42;15.05;;;10.85;;
76900;SDS011;65859;43.020;25.096;2023-05-29T00:46:09;17.92;;;11.50;;
76900;SDS011;65859;43.020;25.096;2023-05-29T00:48:37;16.80;;;11.23;;
76900;SDS011;65859;43.020;25.096;2023-05-29T00:51:04;16.88;;;11.80;;
76900;SDS011;65859;43.020;25.096;2023-05-29T00:53:31;14.30;;;12.40;;
76900;SDS011;65859;43.020;25.096;2023-05-29T00:55:58;21.08;;;13.30;;
76900;SDS011;65859;43.020;25.096;2023-05-29T00:58:25;21.42;;;12.30;;
76900;SDS011;65859;43.020;25.096;2023-05-29T01:00:52;14.88;;;11.50;;
76900;SDS011;65859;43.020;25.096;2023-05-29T01:03:19;15.93;;;10.75;;
76900;SDS011;65859;43.020;25.096;2023-05-29T01:05:48;21.55;;;10.95;;
76900;SDS011;65859;43.020;25.096;2023-05-29T01:08:17;15.23;;;11.45;;
76900;SDS011;65859;43.020;25.096;2023-05-29T01:10:44;16.42;;;12.25;;
76900;SDS011;65859;43.020;25.096;2023-05-29T01:13:19;13.50;;;11.48;;
76900;SDS011;65859;43.020;25.096;2023-05-29T01:15:58;15.23;;;11.15;;
76900;SDS011;65859;43.020;25.096;2023-05-29T01:18:41;15.20;;;11.27;;
76900;SDS011;65859;43.020;25.096;2023-05-29T01:27:12;15.35;;;11.63;;
76900;SDS011;65859;43.020;25.096;2023-05-29T01:29:43;13.77;;;10.65;;
76900;SDS011;65859;43.020;25.096;2023-05-29T01:32:11;12.68;;;10.35;;
76900;SDS011;65859;43.020;25.096;2023-05-29T01:34:38;12.90;;;10.13;;
76900;SDS011;65859;43.020;25.096;2023-05-29T01:37:04;11.23;;;9.73;;
76900;SDS011;65859;43.020;25.096;2023-05-29T01:39:31;10.98;;;9.13;;
76900;SDS011;65859;43.020;25.096;2023-05-29T01:41:58;13.57;;;9.95;;
76900;SDS011;65859;43.020;25.096;2023-05-29T01:44:25;11.65;;;10.13;;
76900;SDS011;65859;43.020;25.096;2023-05-29T01:46:54;13.95;;;9.48;;
76900;SDS011;65859;43.020;25.096;2023-05-29T01:49:23;11.10;;;9.52;;
76900;SDS011;65859;43.020;25.096;2023-05-29T01:51:51;14.25;;;9.95;;
76900;SDS011;65859;43.020;25.096;2023-05-29T01:54:18;11.43;;;9.82;;
76900;SDS011;65859;43.020;25.096;2023-05-29T01:56:46;12.27;;;9.75;;
76900;SDS011;65859;43.020;25.096;2023-05-29T01:59:13;11.70;;;9.02;;
76900;SDS011;65859;43.020;25.096;2023-05-29T02:01:39;12.18;;;10.07;;
76900;SDS011;65859;43.020;25.096;2023-05-29T02:04:06;17.95;;;10.43;;
76900;SDS011;65859;43.020;25.096;2023-05-29T02:06:33;13.15;;;9.43;;
76900;SDS011;65859;43.020;25.096;2023-05-29T02:08:59;14.27;;;10.48;;
76900;SDS011;65859;43.020;25.096;2023-05-29T02:11:26;13.65;;;9.80;;
76900;SDS011;65859;43.020;25.096;2023-05-29T02:13:52;11.95;;;9.40;;
76900;SDS011;65859;43.020;25.096;2023-05-29T02:16:19;10.93;;;9.75;;
76900;SDS011;65859;43.020;25.096;2023-05-29T02:18:46;11.77;;;9.43;;
76900;SDS011;65859;43.020;25.096;2023-05-29T02:21:16;14.63;;;9.52;;
76900;SDS011;65859;43.020;25.096;2023-05-29T02:23:42;10.80;;;9.15;;
76900;SDS011;65859;43.020;25.096;2023-05-29T02:26:09;11.02;;;9.27;;
76900;SDS011;65859;43.020;25.096;2023-05-29T02:28:37;11.48;;;9.98;;
76900;SDS011;65859;43.020;25.096;2023-05-29T02:31:03;11.82;;;10.50;;
76900;SDS011;65859;43.020;25.096;2023-05-29T02:33:30;13.23;;;9.88;;
76900;SDS011;65859;43.020;25.096;2023-05-29T02:35:56;10.75;;;9.45;;
76900;SDS011;65859;43.020;25.096;2023-05-29T02:38:23;11.48;;;10.27;;
76900;SDS011;65859;43.020;25.096;2023-05-29T02:40:49;13.20;;;9.30;;
76900;SDS011;65859;43.020;25.096;2023-05-29T02:43:15;15.43;;;10.02;;
76900;SDS011;65859;43.020;25.096;2023-05-29T02:45:42;11.57;;;9.35;;
76900;SDS011;65859;43.020;25.096;2023-05-29T02:48:08;12.52;;;9.93;;
76900;SDS011;65859;43.020;25.096;2023-05-29T02:50:34;15.25;;;9.88;;
76900;SDS011;65859;43.020;25.096;2023-05-29T02:53:03;15.02;;;10.25;;
76900;SDS011;65859;43.020;25.096;2023-05-29T02:55:29;14.23;;;9.82;;
76900;SDS011;65859;43.020;25.096;2023-05-29T02:57:57;14.25;;;11.77;;
76900;SDS011;65859;43.020;25.096;2023-05-29T03:00:25;13.93;;;11.60;;
76900;SDS011;65859;43.020;25.096;2023-05-29T03:02:53;16.15;;;13.80;;
76900;SDS011;65859;43.020;25.096;2023-05-29T03:05:20;19.08;;;12.65;;
76900;SDS011;65859;43.020;25.096;2023-05-29T03:07:46;15.68;;;11.98;;
76900;SDS011;65859;43.020;25.096;2023-05-29T03:10:13;14.75;;;11.02;;
76900;SDS011;65859;43.020;25.096;2023-05-29T03:12:42;17.85;;;12.27;;
76900;SDS011;65859;43.020;25.096;2023-05-29T03:15:10;15.75;;;12.35;;
76900;SDS011;65859;43.020;25.096;2023-05-29T03:17:36;20.45;;;13.02;;
76900;SDS011;65859;43.020;25.096;2023-05-29T03:20:04;15.65;;;11.95;;
76900;SDS011;65859;43.020;25.096;2023-05-29T03:22:33;19.17;;;13.02;;
76900;SDS011;65859;43.020;25.096;2023-05-29T03:25:02;15.25;;;12.60;;
76900;SDS011;65859;43.020;25.096;2023-05-29T03:27:30;14.43;;;11.27;;
76900;SDS011;65859;43.020;25.096;2023-05-29T03:29:57;24.08;;;16.88;;
76900;SDS011;65859;43.020;25.096;2023-05-29T03:32:23;19.17;;;14.32;;
76900;SDS011;65859;43.020;25.096;2023-05-29T03:34:50;14.60;;;11.23;;
76900;SDS011;65859;43.020;25.096;2023-05-29T03:37:17;17.65;;;12.48;;
76900;SDS011;65859;43.020;25.096;2023-05-29T03:39:43;20.23;;;14.65;;
76900;SDS011;65859;43.020;25.096;2023-05-29T03:42:09;25.17;;;18.75;;
76900;SDS011;65859;43.020;25.096;2023-05-29T03:44:36;26.52;;;18.60;;
76900;SDS011;65859;43.020;25.096;2023-05-29T03:47:02;24.23;;;16.80;;
76900;SDS011;65859;43.020;25.096;2023-05-29T03:49:28;20.52;;;15.32;;
76900;SDS011;65859;43.020;25.096;2023-05-29T03:51:55;21.30;;;15.63;;
76900;SDS011;65859;43.020;25.096;2023-05-29T03:54:21;17.83;;;12.90;;
76900;SDS011;65859;43.020;25.096;2023-05-29T03:56:48;18.17;;;13.82;;
76900;SDS011;65859;43.020;25.096;2023-05-29T03:59:14;24.00;;;17.02;;
76900;SDS011;65859;43.020;25.096;2023-05-29T04:01:41;22.38;;;16.58;;
76900;SDS011;65859;43.020;25.096;2023-05-29T04:04:07;14.75;;;11.73;;
76900;SDS011;65859;43.020;25.096;2023-05-29T04:06:33;16.05;;;12.50;;
76900;SDS011;65859;43.020;25.096;2023-05-29T04:09:04;21.92;;;15.05;;
76900;SDS011;65859;43.020;25.096;2023-05-29T04:11:32;23.05;;;17.20;;
76900;SDS011;65859;43.020;25.096;2023-05-29T04:14:01;19.95;;;15.25;;
76900;SDS011;65859;43.020;25.096;2023-05-29T04:16:28;24.20;;;17.83;;
76900;SDS011;65859;43.020;25.096;2023-05-29T04:18:54;21.73;;;16.00;;
76900;SDS011;65859;43.020;25.096;2023-05-29T04:21:21;24.10;;;15.93;;
76900;SDS011;65859;43.020;25.096;2023-05-29T04:23:47;20.23;;;14.88;;
76900;SDS011;65859;43.020;25.096;2023-05-29T04:26:14;24.38;;;17.05;;
76900;SDS011;65859;43.020;25.096;2023-05-29T04:28:42;29.33;;;19.85;;
76900;SDS011;65859;43.020;25.096;2023-05-29T04:31:08;25.52;;;17.27;;
76900;SDS011;65859;43.020;25.096;2023-05-29T04:33:39;51.85;;;37.75;;
76900;SDS011;65859;43.020;25.096;2023-05-29T04:36:06;24.00;;;16.88;;
76900;SDS011;65859;43.020;25.096;2023-05-29T04:38:33;22.08;;;14.82;;
76900;SDS011;65859;43.020;25.096;2023-05-29T04:41:02;24.05;;;17.63;;
76900;SDS011;65859;43.020;25.096;2023-05-29T04:43:28;31.67;;;19.88;;
76900;SDS011;65859;43.020;25.096;2023-05-29T04:45:54;28.67;;;18.80;;
76900;SDS011;65859;43.020;25.096;2023-05-29T04:48:21;28.70;;;20.30;;
76900;SDS011;65859;43.020;25.096;2023-05-29T04:50:48;26.23;;;18.60;;
76900;SDS011;65859;43.020;25.096;2023-05-29T04:53:14;26.73;;;20.67;;
76900;SDS011;65859;43.020;25.096;2023-05-29T04:55:41;24.60;;;18.38;;
76900;SDS011;65859;43.020;25.096;2023-05-29T04:58:08;29.25;;;21.38;;
76900;SDS011;65859;43.020;25.096;2023-05-29T05:00:34;20.13;;;17.25;;
76900;SDS011;65859;43.020;25.096;2023-05-29T05:03:00;22.42;;;17.60;;
76900;SDS011;65859;43.020;25.096;2023-05-29T05:05:27;23.58;;;16.98;;
76900;SDS011;65859;43.020;25.096;2023-05-29T05:07:53;26.65;;;20.60;;
76900;SDS011;65859;43.020;25.096;2023-05-29T05:10:19;26.00;;;16.15;;
76900;SDS011;65859;43.020;25.096;2023-05-29T05:12:46;30.23;;;21.85;;
76900;SDS011;65859;43.020;25.096;2023-05-29T05:15:12;28.92;;;21.33;;
76900;SDS011;65859;43.020;25.096;2023-05-29T05:17:39;27.63;;;18.55;;
76900;SDS011;65859;43.020;25.096;2023-05-29T05:20:05;34.50;;;24.95;;
76900;SDS011;65859;43.020;25.096;2023-05-29T05:22:33;21.40;;;17.48;;
76900;SDS011;65859;43.020;25.096;2023-05-29T05:25:00;22.33;;;18.00;;
76900;SDS011;65859;43.020;25.096;2023-05-29T05:27:27;26.55;;;18.67;;
76900;SDS011;65859;43.020;25.096;2023-05-29T05:29:54;29.60;;;19.33;;
76900;SDS011;65859;43.020;25.096;2023-05-29T05:32:20;22.80;;;15.27;;
76900;SDS011;65859;43.020;25.096;2023-05-29T05:34:47;22.67;;;16.48;;
76900;SDS011;65859;43.020;25.096;2023-05-29T05:37:13;19.65;;;14.32;;
76900;SDS011;65859;43.020;25.096;2023-05-29T05:39:39;23.15;;;17.35;;
76900;SDS011;65859;43.020;25.096;2023-05-29T05:42:06;21.48;;;16.60;;
76900;SDS011;65859;43.020;25.096;2023-05-29T05:44:32;22.45;;;17.90;;
76900;SDS011;65859;43.020;25.096;2023-05-29T05:46:59;28.75;;;21.05;;
76900;SDS011;65859;43.020;25.096;2023-05-29T05:49:25;25.75;;;18.30;;
76900;SDS011;65859;43.020;25.096;2023-05-29T05:51:52;22.10;;;15.48;;
76900;SDS011;65859;43.020;25.096;2023-05-29T05:54:18;25.33;;;19.27;;
76900;SDS011;65859;43.020;25.096;2023-05-29T05:56:45;22.88;;;18.27;;
76900;SDS011;65859;43.020;25.096;2023-05-29T05:59:11;24.75;;;17.15;;
76900;SDS011;65859;43.020;25.096;2023-05-29T06:01:41;24.05;;;16.67;;
76900;SDS011;65859;43.020;25.096;2023-05-29T06:04:07;22.35;;;14.65;;
76900;SDS011;65859;43.020;25.096;2023-05-29T06:06:34;21.42;;;16.90;;
76900;SDS011;65859;43.020;25.096;2023-05-29T06:09:03;33.25;;;19.27;;
76900;SDS011;65859;43.020;25.096;2023-05-29T06:11:30;28.95;;;18.17;;
76900;SDS011;65859;43.020;25.096;2023-05-29T06:13:57;25.20;;;16.85;;
76900;SDS011;65859;43.020;25.096;2023-05-29T06:16:23;27.52;;;17.10;;
76900;SDS011;65859;43.020;25.096;2023-05-29T06:18:52;31.38;;;17.50;;
76900;SDS011;65859;43.020;25.096;2023-05-29T06:21:19;23.02;;;16.20;;
76900;SDS011;65859;43.020;25.096;2023-05-29T06:23:46;46.13;;;29.98;;
76900;SDS011;65859;43.020;25.096;2023-05-29T06:26:13;32.35;;;23.50;;
76900;SDS011;65859;43.020;25.096;2023-05-29T06:28:41;29.60;;;18.75;;
76900;SDS011;65859;43.020;25.096;2023-05-29T06:31:07;31.20;;;20.98;;
76900;SDS011;65859;43.020;25.096;2023-05-29T06:33:35;26.85;;;18.40;;
76900;SDS011;65859;43.020;25.096;2023-05-29T06:36:03;20.17;;;14.52;;
76900;SDS011;65859;43.020;25.096;2023-05-29T06:38:29;44.67;;;31.17;;
76900;SDS011;65859;43.020;25.096;2023-05-29T06:40:56;30.35;;;22.58;;
76900;SDS011;65859;43.020;25.096;2023-05-29T06:43:22;46.42;;;34.45;;
76900;SDS011;65859;43.020;25.096;2023-05-29T06:45:48;37.70;;;28.75;;
76900;SDS011;65859;43.020;25.096;2023-05-29T06:48:15;23.75;;;18.27;;
76900;SDS011;65859;43.020;25.096;2023-05-29T06:50:42;21.10;;;17.33;;
76900;SDS011;65859;43.020;25.096;2023-05-29T06:53:08;25.75;;;19.83;;
76900;SDS011;65859;43.020;25.096;2023-05-29T06:55:35;25.77;;;18.63;;
76900;SDS011;65859;43.020;25.096;2023-05-29T06:58:01;32.78;;;23.02;;
76900;SDS011;65859;43.020;25.096;2023-05-29T07:00:28;21.30;;;17.30;;
76900;SDS011;65859;43.020;25.096;2023-05-29T07:02:54;28.27;;;18.83;;
76900;SDS011;65859;43.020;25.096;2023-05-29T07:05:26;26.20;;;21.80;;
76900;SDS011;65859;43.020;25.096;2023-05-29T07:07:52;24.33;;;17.58;;
76900;SDS011;65859;43.020;25.096;2023-05-29T07:10:19;27.40;;;19.55;;
76900;SDS011;65859;43.020;25.096;2023-05-29T07:12:45;24.30;;;19.23;;
76900;SDS011;65859;43.020;25.096;2023-05-29T07:15:12;25.70;;;19.70;;
76900;SDS011;65859;43.020;25.096;2023-05-29T07:17:38;21.63;;;17.67;;
76900;SDS011;65859;43.020;25.096;2023-05-29T07:20:07;29.00;;;20.52;;
76900;SDS011;65859;43.020;25.096;2023-05-29T07:22:34;23.45;;;18.15;;
76900;SDS011;65859;43.020;25.096;2023-05-29T07:25:01;21.52;;;17.85;;
76900;SDS011;65859;43.020;25.096;2023-05-29T07:27:28;27.30;;;20.88;;
76900;SDS011;65859;43.020;25.096;2023-05-29T07:29:55;31.85;;;22.23;;
76900;SDS011;65859;43.020;25.096;2023-05-29T07:32:21;25.67;;;19.83;;
76900;SDS011;65859;43.020;25.096;2023-05-29T07:34:48;22.45;;;18.60;;
76900;SDS011;65859;43.020;25.096;2023-05-29T07:37:19;28.92;;;20.02;;
76900;SDS011;65859;43.020;25.096;2023-05-29T07:39:45;23.20;;;18.63;;
76900;SDS011;65859;43.020;25.096;2023-05-29T07:42:12;25.75;;;19.42;;
76900;SDS011;65859;43.020;25.096;2023-05-29T07:44:38;25.60;;;19.70;;
76900;SDS011;65859;43.020;25.096;2023-05-29T07:47:07;31.13;;;20.52;;
76900;SDS011;65859;43.020;25.096;2023-05-29T07:49:34;23.83;;;20.00;;
76900;SDS011;65859;43.020;25.096;2023-05-29T07:52:03;37.03;;;26.90;;
76900;SDS011;65859;43.020;25.096;2023-05-29T07:54:31;30.60;;;23.23;;
76900;SDS011;65859;43.020;25.096;2023-05-29T07:56:59;32.67;;;24.73;;
76900;SDS011;65859;43.020;25.096;2023-05-29T07:59:27;38.15;;;28.50;;
76900;SDS011;65859;43.020;25.096;2023-05-29T08:01:54;36.35;;;26.88;;
76900;SDS011;65859;43.020;25.096;2023-05-29T08:04:27;35.30;;;26.07;;
76900;SDS011;65859;43.020;25.096;2023-05-29T08:06:54;31.92;;;25.08;;
76900;SDS011;65859;43.020;25.096;2023-05-29T08:09:22;40.92;;;29.70;;
76900;SDS011;65859;43.020;25.096;2023-05-29T08:11:48;40.35;;;29.45;;
76900;SDS011;65859;43.020;25.096;2023-05-29T08:14:15;40.08;;;29.05;;
76900;SDS011;65859;43.020;25.096;2023-05-29T08:16:42;35.75;;;27.17;;
76900;SDS011;65859;43.020;25.096;2023-05-29T08:19:08;32.50;;;26.05;;
76900;SDS011;65859;43.020;25.096;2023-05-29T08:21:35;30.20;;;24.38;;
76900;SDS011;65859;43.020;25.096;2023-05-29T08:24:03;32.83;;;26.55;;
76900;SDS011;65859;43.020;25.096;2023-05-29T08:26:30;32.03;;;23.65;;
76900;SDS011;65859;43.020;25.096;2023-05-29T08:28:57;27.90;;;20.88;;
76900;SDS011;65859;43.020;25.096;2023-05-29T08:31:23;25.83;;;21.52;;
76900;SDS011;65859;43.020;25.096;2023-05-29T08:33:51;29.45;;;20.80;;
76900;SDS011;65859;43.020;25.096;2023-05-29T08:36:17;32.25;;;22.98;;
76900;SDS011;65859;43.020;25.096;2023-05-29T08:38:49;27.30;;;21.17;;
76900;SDS011;65859;43.020;25.096;2023-05-29T08:41:27;29.20;;;22.35;;
76900;SDS011;65859;43.020;25.096;2023-05-29T08:44:09;29.73;;;20.65;;
76900;SDS011;65859;43.020;25.096;2023-05-29T08:46:40;28.80;;;19.27;;
76900;SDS011;65859;43.020;25.096;2023-05-29T08:49:07;26.95;;;19.20;;
76900;SDS011;65859;43.020;25.096;2023-05-29T08:51:37;24.95;;;20.95;;
76900;SDS011;65859;43.020;25.096;2023-05-29T08:54:09;28.85;;;24.00;;
76900;SDS011;65859;43.020;25.096;2023-05-29T08:56:37;27.00;;;22.35;;
76900;SDS011;65859;43.020;25.096;2023-05-29T08:59:03;33.70;;;27.13;;
76900;SDS011;65859;43.020;25.096;2023-05-29T09:01:31;28.63;;;24.40;;
76900;SDS011;65859;43.020;25.096;2023-05-29T09:03:59;29.50;;;23.52;;
76900;SDS011;65859;43.020;25.096;2023-05-29T09:06:26;31.80;;;25.58;;
76900;SDS011;65859;43.020;25.096;2023-05-29T09:08:56;33.67;;;26.52;;
76900;SDS011;65859;43.020;25.096;2023-05-29T09:11:24;34.95;;;26.90;;
76900;SDS011;65859;43.020;25.096;2023-05-29T09:13:51;32.58;;;25.40;;
76900;SDS011;65859;43.020;25.096;2023-05-29T09:16:22;33.63;;;26.63;;
76900;SDS011;65859;43.020;25.096;2023-05-29T09:18:49;37.20;;;30.08;;
76900;SDS011;65859;43.020;25.096;2023-05-29T09:21:25;33.67;;;26.38;;
76900;SDS011;65859;43.020;25.096;2023-05-29T09:24:01;29.75;;;22.40;;
76900;SDS011;65859;43.020;25.096;2023-05-29T09:26:29;28.17;;;21.75;;
76900;SDS011;65859;43.020;25.096;2023-05-29T09:28:57;24.73;;;20.15;;
76900;SDS011;65859;43.020;25.096;2023-05-29T09:31:24;30.23;;;23.55;;
76900;SDS011;65859;43.020;25.096;2023-05-29T09:33:50;28.17;;;23.95;;
76900;SDS011;65859;43.020;25.096;2023-05-29T09:36:20;24.52;;;20.05;;
76900;SDS011;65859;43.020;25.096;2023-05-29T09:38:47;25.75;;;20.92;;
76900;SDS011;65859;43.020;25.096;2023-05-29T09:41:22;29.52;;;19.08;;
76900;SDS011;65859;43.020;25.096;2023-05-29T09:43:50;19.95;;;15.32;;
76900;SDS011;65859;43.020;25.096;2023-05-29T09:46:18;18.35;;;15.38;;
76900;SDS011;65859;43.020;25.096;2023-05-29T09:48:45;16.48;;;14.65;;
76900;SDS011;65859;43.020;25.096;2023-05-29T09:51:21;18.35;;;14.95;;
76900;SDS011;65859;43.020;25.096;2023-05-29T09:53:49;16.85;;;13.88;;
76900;SDS011;65859;43.020;25.096;2023-05-29T09:56:19;16.42;;;14.43;;
76900;SDS011;65859;43.020;25.096;2023-05-29T09:58:49;17.02;;;14.20;;
76900;SDS011;65859;43.020;25.096;2023-05-29T10:01:18;17.25;;;13.77;;
76900;SDS011;65859;43.020;25.096;2023-05-29T10:03:46;21.38;;;16.80;;
76900;SDS011;65859;43.020;25.096;2023-05-29T10:06:15;16.30;;;14.45;;
76900;SDS011;65859;43.020;25.096;2023-05-29T10:08:46;16.95;;;15.15;;
76900;SDS011;65859;43.020;25.096;2023-05-29T10:11:20;20.73;;;18.52;;
76900;SDS011;65859;43.020;25.096;2023-05-29T10:13:53;31.85;;;26.30;;
76900;SDS011;65859;43.020;25.096;2023-05-29T10:16:22;21.98;;;19.67;;
76900;SDS011;65859;43.020;25.096;2023-05-29T10:18:53;14.93;;;13.43;;
76900;SDS011;65859;43.020;25.096;2023-05-29T10:21:21;12.57;;;11.27;;
76900;SDS011;65859;43.020;25.096;2023-05-29T10:23:55;8.27;;;7.00;;
76900;SDS011;65859;43.020;25.096;2023-05-29T10:26:25;6.47;;;5.88;;
76900;SDS011;65859;43.020;25.096;2023-05-29T10:28:56;6.22;;;5.60;;
76900;SDS011;65859;43.020;25.096;2023-05-29T10:37:33;5.50;;;5.00;;
76900;SDS011;65859;43.020;25.096;2023-05-29T10:40:08;8.50;;;6.88;;
76900;SDS011;65859;43.020;25.096;2023-05-29T10:42:40;7.05;;;6.22;;
76900;SDS011;65859;43.020;25.096;2023-05-29T10:45:55;6.25;;;5.55;;
76900;SDS011;65859;43.020;25.096;2023-05-29T10:50:41;6.30;;;5.68;;
76900;SDS011;65859;43.020;25.096;2023-05-29T10:53:10;7.53;;;6.18;;
76900;SDS011;65859;43.020;25.096;2023-05-29T10:55:41;10.85;;;7.15;;
76900;SDS011;65859;43.020;25.096;2023-05-29T10:58:14;7.43;;;6.32;;
76900;SDS011;65859;43.020;25.096;2023-05-29T11:00:46;6.22;;;5.43;;
76900;SDS011;65859;43.020;25.096;2023-05-29T11:03:31;6.15;;;5.55;;
76900;SDS011;65859;43.020;25.096;2023-05-29T11:06:04;11.75;;;7.72;;
76900;SDS011;65859;43.020;25.096;2023-05-29T11:08:46;6.95;;;6.22;;
76900;SDS011;65859;43.020;25.096;2023-05-29T11:13:53;7.97;;;6.88;;
76900;SDS011;65859;43.020;25.096;2023-05-29T11:18:51;7.03;;;6.32;;
76900;SDS011;65859;43.020;25.096;2023-05-29T11:21:22;7.43;;;6.63;;
76900;SDS011;65859;43.020;25.096;2023-05-29T11:23:51;8.23;;;6.70;;
76900;SDS011;65859;43.020;25.096;2023-05-29T11:26:22;7.90;;;6.70;;
76900;SDS011;65859;43.020;25.096;2023-05-29T11:28:52;7.20;;;6.30;;
76900;SDS011;65859;43.020;25.096;2023-05-29T11:31:19;8.73;;;6.20;;
76900;SDS011;65859;43.020;25.096;2023-05-29T11:33:48;6.72;;;6.03;;
76900;SDS011;65859;43.020;25.096;2023-05-29T11:36:17;6.63;;;5.88;;
76900;SDS011;65859;43.020;25.096;2023-05-29T11:38:47;9.15;;;6.03;;
76900;SDS011;65859;43.020;25.096;2023-05-29T11:41:13;11.00;;;6.10;;
76900;SDS011;65859;43.020;25.096;2023-05-29T11:43:42;5.80;;;5.30;;
76900;SDS011;65859;43.020;25.096;2023-05-29T11:46:22;6.70;;;5.82;;
76900;SDS011;65859;43.020;25.096;2023-05-29T11:48:48;7.07;;;5.75;;
76900;SDS011;65859;43.020;25.096;2023-05-29T11:51:15;7.78;;;5.75;;
76900;SDS011;65859;43.020;25.096;2023-05-29T11:53:41;6.03;;;4.75;;
76900;SDS011;65859;43.020;25.096;2023-05-29T11:56:09;5.85;;;4.90;;
76900;SDS011;65859;43.020;25.096;2023-05-29T11:58:36;6.88;;;4.97;;
76900;SDS011;65859;43.020;25.096;2023-05-29T12:01:04;7.82;;;5.55;;
76900;SDS011;65859;43.020;25.096;2023-05-29T12:03:40;7.82;;;5.43;;
76900;SDS011;65859;43.020;25.096;2023-05-29T12:08:34;7.50;;;6.35;;
76900;SDS011;65859;43.020;25.096;2023-05-29T12:11:02;6.43;;;5.82;;
76900;SDS011;65859;43.020;25.096;2023-05-29T12:13:29;13.63;;;7.72;;
76900;SDS011;65859;43.020;25.096;2023-05-29T12:15:56;7.57;;;5.97;;
76900;SDS011;65859;43.020;25.096;2023-05-29T12:18:25;7.40;;;6.22;;
76900;SDS011;65859;43.020;25.096;2023-05-29T12:20:59;6.53;;;5.53;;
76900;SDS011;65859;43.020;25.096;2023-05-29T12:23:26;6.82;;;4.75;;
76900;SDS011;65859;43.020;25.096;2023-05-29T12:25:55;5.25;;;4.65;;
76900;SDS011;65859;43.020;25.096;2023-05-29T12:28:22;5.55;;;4.95;;
76900;SDS011;65859;43.020;25.096;2023-05-29T12:30:49;6.85;;;6.07;;
76900;SDS011;65859;43.020;25.096;2023-05-29T12:36:04;5.82;;;4.97;;
76900;SDS011;65859;43.020;25.096;2023-05-29T12:38:32;6.28;;;5.50;;
76900;SDS011;65859;43.020;25.096;2023-05-29T12:41:21;7.88;;;4.70;;
76900;SDS011;65859;43.020;25.096;2023-05-29T12:43:54;5.85;;;4.78;;
76900;SDS011;65859;43.020;25.096;2023-05-29T12:46:22;8.95;;;4.90;;
76900;SDS011;65859;43.020;25.096;2023-05-29T12:48:54;5.60;;;5.10;;
76900;SDS011;65859;43.020;25.096;2023-05-29T12:51:27;7.15;;;5.30;;
76900;SDS011;65859;43.020;25.096;2023-05-29T12:53:54;9.20;;;6.30;;
76900;SDS011;65859;43.020;25.096;2023-05-29T12:56:22;3.35;;;3.00;;
76900;SDS011;65859;43.020;25.096;2023-05-29T12:59:11;3.65;;;2.83;;
76900;SDS011;65859;43.020;25.096;2023-05-29T13:01:38;4.43;;;2.10;;
76900;SDS011;65859;43.020;25.096;2023-05-29T13:04:05;2.60;;;2.03;;
76900;SDS011;65859;43.020;25.096;2023-05-29T13:06:33;2.85;;;1.50;;
76900;SDS011;65859;43.020;25.096;2023-05-29T13:09:00;1.85;;;1.40;;
76900;SDS011;65859;43.020;25.096;2023-05-29T13:11:26;3.30;;;1.33;;
76900;SDS011;65859;43.020;25.096;2023-05-29T13:13:53;1.77;;;1.30;;
76900;SDS011;65859;43.020;25.096;2023-05-29T13:16:19;1.55;;;1.13;;
76900;SDS011;65859;43.020;25.096;2023-05-29T13:18:46;1.42;;;1.33;;
76900;SDS011;65859;43.020;25.096;2023-05-29T13:21:14;1.40;;;1.30;;
76900;SDS011;65859;43.020;25.096;2023-05-29T13:23:40;1.80;;;1.50;;
76900;SDS011;65859;43.020;25.096;2023-05-29T13:26:07;1.95;;;1.08;;
76900;SDS011;65859;43.020;25.096;2023-05-29T13:28:33;2.08;;;1.30;;
76900;SDS011;65859;43.020;25.096;2023-05-29T13:31:00;2.00;;;1.13;;
76900;SDS011;65859;43.020;25.096;2023-05-29T13:33:26;2.03;;;1.10;;
76900;SDS011;65859;43.020;25.096;2023-05-29T13:35:52;3.78;;;1.50;;
76900;SDS011;65859;43.020;25.096;2023-05-29T13:38:19;2.25;;;1.35;;
76900;SDS011;65859;43.020;25.096;2023-05-29T13:40:45;3.40;;;1.40;;
76900;SDS011;65859;43.020;25.096;2023-05-29T13:43:12;2.17;;;1.38;;
76900;SDS011;65859;43.020;25.096;2023-05-29T13:45:38;5.53;;;2.15;;
76900;SDS011;65859;43.020;25.096;2023-05-29T13:48:05;9.35;;;2.45;;
76900;SDS011;65859;43.020;25.096;2023-05-29T13:50:32;5.45;;;2.33;;
76900;SDS011;65859;43.020;25.096;2023-05-29T13:53:00;6.13;;;3.50;;
76900;SDS011;65859;43.020;25.096;2023-05-29T13:55:26;4.22;;;3.10;;
76900;SDS011;65859;43.020;25.096;2023-05-29T13:57:52;4.18;;;3.63;;
76900;SDS011;65859;43.020;25.096;2023-05-29T14:00:19;6.18;;;3.70;;
76900;SDS011;65859;43.020;25.096;2023-05-29T14:02:46;8.23;;;3.60;;
76900;SDS011;65859;43.020;25.096;2023-05-29T14:05:12;5.72;;;3.65;;
76900;SDS011;65859;43.020;25.096;2023-05-29T14:07:38;6.65;;;3.80;;
76900;SDS011;65859;43.020;25.096;2023-05-29T14:10:05;7.63;;;4.38;;
76900;SDS011;65859;43.020;25.096;2023-05-29T14:12:32;8.63;;;4.18;;
76900;SDS011;65859;43.020;25.096;2023-05-29T14:14:58;8.13;;;3.70;;
76900;SDS011;65859;43.020;25.096;2023-05-29T14:17:25;5.60;;;3.80;;
76900;SDS011;65859;43.020;25.096;2023-05-29T14:19:51;7.75;;;3.97;;
76900;SDS011;65859;43.020;25.096;2023-05-29T14:22:20;6.22;;;4.18;;
76900;SDS011;65859;43.020;25.096;2023-05-29T14:24:47;5.93;;;3.80;;
76900;SDS011;65859;43.020;25.096;2023-05-29T14:27:13;23.98;;;13.98;;
76900;SDS011;65859;43.020;25.096;2023-05-29T14:29:40;8.35;;;6.70;;
76900;SDS011;65859;43.020;25.096;2023-05-29T14:32:07;6.32;;;3.83;;
76900;SDS011;65859;43.020;25.096;2023-05-29T14:34:33;11.60;;;6.95;;
76900;SDS011;65859;43.020;25.096;2023-05-29T14:37:00;8.57;;;6.43;;
76900;SDS011;65859;43.020;25.096;2023-05-29T14:39:26;20.48;;;12.50;;
76900;SDS011;65859;43.020;25.096;2023-05-29T14:41:52;14.20;;;9.75;;
76900;SDS011;65859;43.020;25.096;2023-05-29T14:44:19;15.52;;;7.68;;
76900;SDS011;65859;43.020;25.096;2023-05-29T14:46:48;21.95;;;11.48;;